| time (UTC) | temp F | wind direction | speed knots | gust knots | rain 1hr in | rain 24hr in | rain mn in | humidity % | barometer mb |
| 20260507064722 | 49 | 0.0 | 0.0 | 0.00 | 0.00 | 0.00 | 39 | ||
| 20260507062722 | 48 | 0.0 | 0.0 | 0.00 | 0.00 | 0.00 | 40 | ||
| 20260507054723 | 46 | 0.0 | 0.0 | 0.00 | 0.00 | 0.00 | 40 | ||
| 20260507052722 | 44 | 0.0 | 0.0 | 0.00 | 0.00 | 0.00 | 49 | ||
| 20260507050722 | 41 | 0.0 | 0.0 | 0.00 | 0.00 | 0.00 | 64 | ||
| 20260507044722 | 38 | 0.0 | 0.0 | 0.00 | 0.00 | 0.00 | 68 | ||
| 20260507042722 | 36 | 0.0 | 0.0 | 0.00 | 0.00 | 0.00 | 70 | ||
| 20260507040722 | 33 | 0.0 | 0.0 | 0.00 | 0.00 | 0.00 | 77 | ||
| 20260507034722 | 31 | 0.0 | 0.0 | 0.00 | 0.00 | 0.00 | 81 | ||
| 20260507032722 | 31 | 0.0 | 0.0 | 0.00 | 0.00 | 0.00 | 84 | ||
| 20260507030722 | 29 | 0.0 | 0.0 | 0.00 | 0.00 | 0.00 | 88 | ||
| 20260507024722 | 29 | 0.0 | 0.0 | 0.00 | 0.00 | 0.00 | 89 | ||
| 20260507020722 | 29 | 0.0 | 0.0 | 0.00 | 0.00 | 0.00 | 89 | ||
| 20260507014721 | 29 | 0.0 | 0.0 | 0.00 | 0.00 | 0.00 | 90 | ||
| 20260507012721 | 29 | 0.0 | 0.0 | 0.00 | 0.00 | 0.00 | 89 | ||
| 20260507010721 | 30 | 0.0 | 0.0 | 0.00 | 0.00 | 0.00 | 87 | ||
| 20260507004721 | 31 | 0.0 | 0.0 | 0.00 | 0.00 | 0.00 | 86 | ||
| 20260507002722 | 30 | 0.0 | 0.0 | 0.00 | 0.00 | 0.00 | 88 | ||
| 20260507000721 | 30 | 0.0 | 0.0 | 0.00 | 0.00 | 0.00 | 89 | ||
| 20260506234721 | 30 | 0.0 | 0.0 | 0.00 | 0.00 | 0.00 | 89 | ||
| 20260506232721 | 30 | 0.0 | 0.0 | 0.00 | 0.00 | 0.00 | 88 | ||
| 20260506230721 | 30 | 0.0 | 0.0 | 0.00 | 0.00 | 0.00 | 87 | ||
| 20260506224721 | 31 | 0.0 | 0.0 | 0.00 | 0.00 | 0.00 | 87 | ||
| 20260506222721 | 30 | 0.0 | 0.0 | 0.00 | 0.00 | 0.00 | 87 | ||
| 20260506220721 | 32 | 0.0 | 0.0 | 0.00 | 0.00 | 0.00 | 85 | ||
| 20260506214721 | 33 | 0.0 | 0.0 | 0.00 | 0.00 | 0.00 | 83 | ||
| 20260506212721 | 34 | 0.0 | 0.0 | 0.00 | 0.00 | 0.00 | 80 | ||
| 20260506210720 | 35 | 0.0 | 0.0 | 0.00 | 0.00 | 0.00 | 78 | ||
| 20260506204720 | 35 | 0.0 | 0.0 | 0.00 | 0.00 | 0.00 | 78 | ||
| 20260506202721 | 37 | 0.0 | 0.0 | 0.00 | 0.00 | 0.00 | 75 | ||
| 20260506200720 | 38 | 0.0 | 0.0 | 0.00 | 0.00 | 0.00 | 72 | ||
| 20260506194720 | 38 | 0.0 | 0.0 | 0.00 | 0.00 | 0.00 | 73 | ||
| 20260506192720 | 39 | 0.0 | 0.0 | 0.00 | 0.00 | 0.00 | 69 | ||
| 20260506190721 | 40 | 0.0 | 0.0 | 0.00 | 0.00 | 0.00 | 67 | ||
| 20260506184720 | 41 | 0.0 | 0.0 | 0.00 | 0.00 | 0.00 | 66 | ||
| 20260506182720 | 42 | 0.0 | 0.0 | 0.00 | 0.00 | 0.00 | 62 | ||
| 20260506180720 | 47 | 0.0 | 0.0 | 0.00 | 0.00 | 0.00 | 47 | ||
| 20260506172720 | 47 | 0.0 | 0.0 | 0.00 | 0.00 | 0.00 | 50 | ||
| 20260506170719 | 48 | 0.0 | 0.0 | 0.00 | 0.00 | 0.00 | 43 | ||
| 20260506164719 | 49 | 0.0 | 0.0 | 0.00 | 0.00 | 0.00 | 43 | ||
| 20260506162720 | 50 | 0.0 | 0.0 | 0.00 | 0.00 | 0.00 | 43 | ||
| 20260506160719 | 51 | 0.0 | 0.0 | 0.00 | 0.00 | 0.00 | 38 | ||
| 20260506154720 | 52 | 0.0 | 0.0 | 0.00 | 0.00 | 0.00 | 38 | ||
| 20260506152719 | 51 | 0.0 | 0.0 | 0.00 | 0.00 | 0.00 | 38 | ||
| 20260506150719 | 52 | 0.0 | 0.0 | 0.00 | 0.00 | 0.00 | 39 | ||
| 20260506144719 | 53 | 0.0 | 0.0 | 0.00 | 0.00 | 0.00 | 37 | ||
| 20260506140719 | 55 | 0.0 | 0.0 | 0.00 | 0.00 | 0.00 | 22 | ||
| 20260506134719 | 52 | 0.0 | 0.0 | 0.00 | 0.00 | 0.00 | 23 | ||
| 20260506132719 | 53 | 0.0 | 0.0 | 0.00 | 0.00 | 0.00 | 22 | ||
| 20260506124718 | 53 | 0.0 | 0.0 | 0.00 | 0.00 | 0.00 | 22 | ||
| 20260506122719 | 55 | 0.0 | 0.0 | 0.00 | 0.00 | 0.00 | 22 | ||
| 20260506120718 | 54 | 0.0 | 0.0 | 0.00 | 0.00 | 0.00 | 24 | ||
| 20260506112719 | 53 | 0.0 | 0.0 | 0.00 | 0.00 | 0.00 | 23 | ||
| 20260506110719 | 53 | 0.0 | 0.0 | 0.00 | 0.00 | 0.00 | 25 | ||
| 20260506104719 | 54 | 0.0 | 0.0 | 0.00 | 0.00 | 0.00 | 29 | ||
| 20260506102719 | 50 | 0.0 | 0.0 | 0.00 | 0.00 | 0.00 | 29 | ||
| 20260506100719 | 50 | 0.0 | 0.0 | 0.00 | 0.00 | 0.00 | 28 | ||
| 20260506094719 | 52 | 0.0 | 0.0 | 0.00 | 0.00 | 0.00 | 31 | ||
| 20260506090718 | 50 | 0.0 | 0.0 | 0.00 | 0.00 | 0.00 | 31 | ||
| 20260506084719 | 49 | 0.0 | 0.0 | 0.00 | 0.00 | 0.00 | 35 | ||
| 20260506082719 | 48 | 0.0 | 0.0 | 0.00 | 0.00 | 0.00 | 34 | ||
| 20260506080718 | 47 | 0.0 | 0.0 | 0.00 | 0.00 | 0.00 | 41 | ||
| 20260506072719 | 47 | 0.0 | 0.0 | 0.00 | 0.00 | 0.00 | 46 | ||
| 20260506070718 | 46 | 0.0 | 0.0 | 0.00 | 0.00 | 0.00 | 53 |